Time;durP1;ratioP1;P1;durP2;ratioP2;P2;SDS_P1;SDS_P2;PMS_P1;PMS_P2;Temp;Humidity;BMP_temperature;BMP_pressure;BME280_temperature;BME280_humidity;BME280_pressure;Samples;Min_cycle;Max_cycle;Signal;HPM_P1;HPM_P2
2021/05/04 00:02:09;;;;;;;3.83;2.60;;;14.10;66.80;;;;;;4983880;28;20557;-81
2021/05/04 00:04:35;;;;;;;3.00;2.80;;;14.10;65.80;;;;;;4986355;28;20473;-81
2021/05/04 00:07:02;;;;;;;8.40;3.20;;;14.10;66.00;;;;;;4979516;28;20463;-80
2021/05/04 00:09:28;;;;;;;10.03;2.83;;;14.10;66.10;;;;;;4984347;28;20463;-81
2021/05/04 00:11:55;;;;;;;4.73;2.60;;;14.10;66.10;;;;;;4983836;28;20458;-81
2021/05/04 00:14:21;;;;;;;3.17;2.87;;;14.10;65.80;;;;;;4981474;28;20470;-81
2021/05/04 00:16:48;;;;;;;3.07;2.77;;;14.10;65.80;;;;;;4985060;28;20507;-81
2021/05/04 00:19:15;;;;;;;7.23;3.00;;;14.20;65.30;;;;;;4986199;28;20681;-81
2021/05/04 00:21:42;;;;;;;4.53;2.87;;;14.20;65.30;;;;;;4978516;28;20467;-81
2021/05/04 00:24:09;;;;;;;2.57;2.37;;;14.20;65.10;;;;;;4984862;28;20808;-81
2021/05/04 00:26:35;;;;;;;5.40;2.70;;;14.20;65.40;;;;;;4983620;28;20477;-81
2021/05/04 00:29:01;;;;;;;3.63;3.30;;;14.20;64.70;;;;;;4984403;28;20467;-80
2021/05/04 00:31:28;;;;;;;2.60;2.40;;;14.20;64.90;;;;;;4977991;28;20500;-81
2021/05/04 00:33:55;;;;;;;2.53;2.33;;;14.20;64.80;;;;;;4986110;28;20494;-80
2021/05/04 00:36:22;;;;;;;3.67;2.53;;;14.20;64.50;;;;;;4980477;28;20463;-80
2021/05/04 00:38:49;;;;;;;2.63;2.40;;;14.20;64.90;;;;;;4986074;28;21009;-81
2021/05/04 00:41:15;;;;;;;2.47;2.20;;;14.20;65.00;;;;;;4984817;28;20470;-80
2021/05/04 00:43:42;;;;;;;2.30;2.10;;;14.20;65.20;;;;;;4981125;28;20474;-80
2021/05/04 00:46:09;;;;;;;3.07;2.57;;;14.20;64.80;;;;;;4986752;28;20552;-81
2021/05/04 00:48:35;;;;;;;4.80;2.63;;;14.20;64.70;;;;;;4979078;28;20482;-80
2021/05/04 00:51:02;;;;;;;2.10;2.00;;;14.20;64.70;;;;;;4987046;28;20464;-80
2021/05/04 00:53:31;;;;;;;2.53;2.27;;;14.20;64.40;;;;;;4987572;28;21500;-80
2021/05/04 00:55:59;;;;;;;4.67;2.50;;;14.20;64.50;;;;;;4989694;28;20466;-80
2021/05/04 00:58:26;;;;;;;3.50;2.50;;;14.20;64.60;;;;;;4986765;28;20463;-81
2021/05/04 01:00:52;;;;;;;2.43;2.20;;;14.30;64.40;;;;;;4984240;28;20548;-81
2021/05/04 01:03:20;;;;;;;2.67;2.43;;;14.30;64.90;;;;;;4987933;28;20524;-81
2021/05/04 01:05:47;;;;;;;3.00;2.50;;;14.30;64.90;;;;;;4989583;28;20495;-80
2021/05/04 01:08:13;;;;;;;3.30;2.50;;;14.30;64.80;;;;;;4987526;28;20490;-81
2021/05/04 01:10:41;;;;;;;4.00;2.47;;;14.30;65.50;;;;;;4985894;28;20581;-80
2021/05/04 01:13:08;;;;;;;3.10;2.57;;;14.20;65.40;;;;;;4983992;28;20493;-81
2021/05/04 01:15:35;;;;;;;5.80;2.73;;;14.30;64.00;;;;;;4987169;28;20462;-81
2021/05/04 01:18:01;;;;;;;2.10;2.00;;;14.30;63.70;;;;;;4989227;28;20459;-80
2021/05/04 01:20:28;;;;;;;5.03;2.00;;;14.30;63.80;;;;;;4986565;28;20603;-80
2021/05/04 01:22:55;;;;;;;3.17;2.20;;;14.30;63.20;;;;;;4986380;28;20468;-80
2021/05/04 01:25:22;;;;;;;6.87;2.53;;;14.30;63.60;;;;;;4980071;28;20551;-80
2021/05/04 01:27:48;;;;;;;5.83;2.47;;;14.30;62.80;;;;;;4982494;28;20463;-80
2021/05/04 01:30:15;;;;;;;3.80;2.17;;;14.30;62.50;;;;;;4989141;28;20464;-80
2021/05/04 01:32:41;;;;;;;3.43;2.20;;;14.30;62.40;;;;;;4984588;28;20494;-81
2021/05/04 01:35:09;;;;;;;2.40;2.20;;;14.30;62.30;;;;;;4980092;28;20473;-81
2021/05/04 01:37:37;;;;;;;10.47;2.43;;;14.40;61.50;;;;;;4978810;28;20944;-81
2021/05/04 01:40:06;;;;;;;4.77;2.40;;;14.30;61.30;;;;;;4985095;28;20506;-80
2021/05/04 01:42:32;;;;;;;4.30;2.27;;;14.40;60.50;;;;;;4988095;28;21338;-80
2021/05/04 01:44:59;;;;;;;8.93;2.10;;;14.30;61.80;;;;;;4982820;28;20829;-80
2021/05/04 01:47:25;;;;;;;14.83;3.17;;;14.30;61.70;;;;;;4986496;28;20949;-79
2021/05/04 01:49:51;;;;;;;19.60;3.47;;;14.20;64.10;;;;;;4984528;28;20471;-79
2021/05/04 01:52:18;;;;;;;6.50;2.10;;;14.10;67.40;;;;;;4978895;28;20567;-79
2021/05/04 01:54:44;;;;;;;9.10;2.30;;;14.00;66.70;;;;;;4983887;28;20454;-79
2021/05/04 01:57:12;;;;;;;4.67;1.90;;;13.80;68.30;;;;;;4984264;28;20471;-79
2021/05/04 01:59:38;;;;;;;2.37;2.00;;;13.70;70.40;;;;;;4983347;28;20973;-78
2021/05/04 02:02:04;;;;;;;2.20;1.90;;;13.60;72.20;;;;;;4979929;28;20471;-78
2021/05/04 02:04:32;;;;;;;3.93;2.30;;;13.50;73.00;;;;;;4983051;28;20459;-78
2021/05/04 02:06:58;;;;;;;6.10;2.27;;;13.40;73.60;;;;;;4981349;28;20468;-78
2021/05/04 02:09:25;;;;;;;2.63;2.30;;;13.30;75.90;;;;;;4981376;28;20471;-78
2021/05/04 02:11:51;;;;;;;4.87;2.67;;;13.20;76.20;;;;;;4982378;28;20463;-78
2021/05/04 02:14:18;;;;;;;2.47;2.30;;;13.00;78.70;;;;;;4982167;28;20612;-78
2021/05/04 02:16:45;;;;;;;4.45;2.40;;;12.90;78.50;;;;;;4980090;28;20485;-77
2021/05/04 02:19:11;;;;;;;6.57;2.22;;;12.90;79.90;;;;;;4982238;28;20234;-78
2021/05/04 02:21:37;;;;;;;2.22;2.13;;;12.80;80.90;;;;;;4979458;28;20206;-77
2021/05/04 02:24:05;;;;;;;2.85;2.60;;;12.70;82.30;;;;;;4983345;28;20285;-77
2021/05/04 02:26:31;;;;;;;2.55;2.25;;;12.60;84.00;;;;;;4981679;28;20203;-77
2021/05/04 02:28:58;;;;;;;6.15;2.20;;;12.50;84.00;;;;;;4987330;28;20206;-78
2021/05/04 02:31:25;;;;;;;3.15;2.40;;;12.50;84.50;;;;;;4985200;28;20278;-78
2021/05/04 02:33:52;;;;;;;6.93;2.35;;;12.40;84.30;;;;;;4979577;28;20229;-76
2021/05/04 02:36:18;;;;;;;5.43;2.40;;;12.30;85.00;;;;;;4979361;28;20199;-77
2021/05/04 02:38:45;;;;;;;4.65;2.60;;;12.20;85.70;;;;;;4975683;28;20919;-76
2021/05/04 02:41:12;;;;;;;3.97;2.38;;;12.20;86.60;;;;;;4981214;28;20211;-76
2021/05/04 02:43:38;;;;;;;2.20;2.10;;;12.10;88.10;;;;;;4982730;28;20670;-78
2021/05/04 02:46:06;;;;;;;2.47;2.35;;;12.00;87.70;;;;;;4990423;28;20248;-76
2021/05/04 02:48:38;;;;;;;2.72;2.53;;;12.00;88.40;;;;;;4980364;28;20230;-76
2021/05/04 02:51:06;;;;;;;6.45;2.58;;;11.90;89.30;;;;;;4983734;28;20203;-77
2021/05/04 02:53:32;;;;;;;3.42;2.45;;;11.80;89.00;;;;;;4983669;28;20474;-77
2021/05/04 02:55:58;;;;;;;3.00;2.80;;;11.80;89.30;;;;;;4983351;28;20202;-78
2021/05/04 02:58:26;;;;;;;3.08;2.80;;;11.80;90.10;;;;;;4979329;28;20217;-78
2021/05/04 03:00:52;;;;;;;2.00;1.90;;;11.70;89.50;;;;;;4983155;28;20230;-78
2021/05/04 03:03:18;;;;;;;3.45;3.15;;;11.70;90.00;;;;;;4984127;28;20213;-79
2021/05/04 03:05:46;;;;;;;6.20;2.47;;;11.70;90.60;;;;;;4983620;28;20704;-77
2021/05/04 03:08:12;;;;;;;3.90;2.58;;;11.70;90.20;;;;;;4987129;28;20287;-77
2021/05/04 03:10:39;;;;;;;3.05;2.60;;;11.70;90.10;;;;;;4984127;28;20317;-78
2021/05/04 03:13:05;;;;;;;2.50;2.30;;;11.60;90.50;;;;;;4979162;28;20332;-77
2021/05/04 03:15:31;;;;;;;3.72;2.33;;;11.60;90.50;;;;;;4979891;28;20225;-78
2021/05/04 03:17:58;;;;;;;3.00;2.80;;;11.50;90.60;;;;;;4977288;28;20292;-80
2021/05/04 03:20:24;;;;;;;4.00;2.58;;;11.50;90.50;;;;;;4983227;28;20317;-78
2021/05/04 03:22:51;;;;;;;6.05;2.60;;;11.50;90.60;;;;;;4985339;28;20203;-79
2021/05/04 03:25:18;;;;;;;3.85;2.65;;;11.50;90.50;;;;;;4983308;28;20557;-78
2021/05/04 03:27:44;;;;;;;3.13;2.83;;;11.50;90.60;;;;;;4987119;28;20202;-80
2021/05/04 03:30:11;;;;;;;2.80;2.60;;;11.40;90.60;;;;;;4993220;28;20693;-79
2021/05/04 03:32:40;;;;;;;2.78;2.58;;;11.40;90.80;;;;;;4988851;28;20231;-78
2021/05/04 03:35:08;;;;;;;3.10;2.90;;;11.40;90.70;;;;;;4986090;28;20245;-79
2021/05/04 03:37:34;;;;;;;2.95;2.38;;;11.30;90.70;;;;;;4986509;28;20197;-79
2021/05/04 03:40:02;;;;;;;3.50;2.40;;;11.30;91.00;;;;;;4984440;28;20203;-79
2021/05/04 03:42:28;;;;;;;2.60;2.40;;;11.20;91.20;;;;;;4985789;28;20851;-79
2021/05/04 03:44:55;;;;;;;4.30;2.60;;;11.20;91.50;;;;;;4986638;28;20202;-81
2021/05/04 03:47:21;;;;;;;3.55;3.25;;;11.20;91.40;;;;;;4982434;28;20300;-77
2021/05/04 03:49:47;;;;;;;2.83;2.63;;;11.20;91.60;;;;;;4984727;28;20201;-77
2021/05/04 03:52:14;;;;;;;3.55;3.00;;;11.20;91.60;;;;;;4987752;28;20210;-79
2021/05/04 03:54:40;;;;;;;2.80;2.60;;;11.20;91.70;;;;;;4984696;28;20210;-80
2021/05/04 03:57:07;;;;;;;2.75;2.55;;;11.20;91.70;;;;;;4983171;28;20677;-79
2021/05/04 03:59:34;;;;;;;2.78;2.58;;;11.20;91.60;;;;;;4988289;28;20288;-80
2021/05/04 04:02:00;;;;;;;2.70;2.38;;;11.10;91.90;;;;;;4980121;28;20210;-79
2021/05/04 04:04:26;;;;;;;3.08;2.75;;;11.10;92.10;;;;;;4984701;28;20219;-79
2021/05/04 04:06:53;;;;;;;3.47;2.45;;;11.10;91.90;;;;;;4983602;28;20701;-79
2021/05/04 04:09:20;;;;;;;3.00;2.78;;;11.10;92.00;;;;;;4985873;28;20230;-79
2021/05/04 04:11:46;;;;;;;2.90;2.70;;;11.10;92.10;;;;;;4985463;28;20252;-80
2021/05/04 04:14:13;;;;;;;3.03;2.83;;;11.10;92.20;;;;;;4980002;28;20233;-80
2021/05/04 04:16:40;;;;;;;3.15;2.90;;;11.10;92.20;;;;;;4981695;28;20211;-80
2021/05/04 04:19:08;;;;;;;3.00;2.80;;;11.10;92.30;;;;;;4984000;28;20210;-80
2021/05/04 04:21:34;;;;;;;2.50;2.20;;;11.10;92.20;;;;;;4979732;28;20206;-79
2021/05/04 04:24:01;;;;;;;3.33;2.60;;;11.10;92.20;;;;;;4985206;28;20209;-80
2021/05/04 04:26:27;;;;;;;3.88;2.47;;;11.10;92.10;;;;;;4986644;28;20214;-79
2021/05/04 04:28:54;;;;;;;3.80;2.22;;;11.10;92.10;;;;;;4989736;28;20297;-79
2021/05/04 04:31:21;;;;;;;2.55;2.35;;;11.10;92.20;;;;;;4986331;28;20203;-78
2021/05/04 04:33:47;;;;;;;2.70;2.50;;;11.10;92.20;;;;;;4978816;28;20696;-79
2021/05/04 04:36:13;;;;;;;2.83;2.63;;;11.10;92.20;;;;;;4983951;28;20220;-80
2021/05/04 04:38:40;;;;;;;6.18;2.45;;;11.10;92.30;;;;;;4980888;28;20199;-81
2021/05/04 04:41:06;;;;;;;3.40;2.65;;;11.10;92.70;;;;;;4985815;28;20312;-81
2021/05/04 04:43:32;;;;;;;7.22;2.80;;;11.10;92.30;;;;;;4988064;28;20219;-79
2021/05/04 04:45:59;;;;;;;2.83;2.63;;;11.10;92.40;;;;;;4989241;28;20205;-80
2021/05/04 04:48:26;;;;;;;4.35;2.78;;;11.10;92.60;;;;;;4985543;28;20219;-81
2021/05/04 04:50:52;;;;;;;2.72;2.50;;;11.10;92.60;;;;;;4986543;28;20663;-80
2021/05/04 04:53:19;;;;;;;2.92;2.63;;;11.10;92.60;;;;;;4985874;28;20225;-82
2021/05/04 04:55:45;;;;;;;3.33;2.40;;;11.10;92.80;;;;;;4982673;28;20216;-80
2021/05/04 04:58:12;;;;;;;3.72;2.70;;;11.10;92.70;;;;;;4982363;28;20201;-80
2021/05/04 05:00:38;;;;;;;2.97;2.40;;;11.10;92.80;;;;;;4985056;28;20676;-80
2021/05/04 05:03:05;;;;;;;2.63;2.42;;;11.10;93.00;;;;;;4989145;28;20206;-80
2021/05/04 05:05:32;;;;;;;2.60;2.40;;;11.20;93.20;;;;;;4985138;28;20201;-81
2021/05/04 05:07:58;;;;;;;5.93;2.65;;;11.20;93.10;;;;;;4980899;28;20205;-80
2021/05/04 05:10:25;;;;;;;2.72;2.20;;;11.20;93.30;;;;;;4980556;28;20321;-81
2021/05/04 05:12:51;;;;;;;2.50;2.40;;;11.20;93.20;;;;;;4979332;28;20226;-81
2021/05/04 05:15:17;;;;;;;4.85;2.55;;;11.20;93.50;;;;;;4989624;28;20293;-80
2021/05/04 05:17:44;;;;;;;2.70;2.50;;;11.20;93.30;;;;;;4986098;28;20545;-81
2021/05/04 05:20:11;;;;;;;2.92;2.60;;;11.20;93.50;;;;;;4983691;28;20704;-82
2021/05/04 05:22:38;;;;;;;2.45;2.25;;;11.20;93.30;;;;;;4977708;28;20203;-81
2021/05/04 05:25:06;;;;;;;2.80;2.60;;;11.20;93.40;;;;;;4986380;28;20632;-81
2021/05/04 05:27:33;;;;;;;2.58;2.38;;;11.20;93.50;;;;;;4981137;28;20194;-81
2021/05/04 05:30:00;;;;;;;2.42;2.20;;;11.20;93.70;;;;;;4982345;28;20211;-81
2021/05/04 05:32:26;;;;;;;2.50;2.30;;;11.20;93.60;;;;;;4984151;28;20203;-81
2021/05/04 05:34:53;;;;;;;3.85;2.50;;;11.20;93.60;;;;;;4982765;28;20203;-81
2021/05/04 05:37:19;;;;;;;2.58;2.47;;;11.30;93.70;;;;;;4988001;28;20253;-81
2021/05/04 05:39:46;;;;;;;5.40;2.72;;;11.30;93.60;;;;;;4984125;28;20206;-82
2021/05/04 05:42:14;;;;;;;3.05;2.63;;;11.30;93.70;;;;;;4981891;28;20242;-81
2021/05/04 05:44:40;;;;;;;2.40;2.30;;;11.30;93.70;;;;;;4983209;28;20847;-81
2021/05/04 05:47:07;;;;;;;2.75;2.22;;;11.30;93.90;;;;;;4984519;28;20207;-82
2021/05/04 05:49:33;;;;;;;3.10;2.35;;;11.30;93.80;;;;;;4990708;28;20199;-81
2021/05/04 05:52:00;;;;;;;2.50;2.30;;;11.40;93.90;;;;;;4986193;28;20230;-81
2021/05/04 05:54:26;;;;;;;2.90;2.70;;;11.40;93.90;;;;;;4984709;28;20222;-82
2021/05/04 05:56:53;;;;;;;2.70;2.50;;;11.40;93.90;;;;;;4984400;28;20886;-81
2021/05/04 05:59:20;;;;;;;2.50;2.30;;;11.50;93.90;;;;;;4982270;28;20203;-82
2021/05/04 06:01:46;;;;;;;2.55;2.40;;;11.50;93.70;;;;;;4985133;28;20234;-81
2021/05/04 06:04:13;;;;;;;4.25;2.80;;;11.50;93.90;;;;;;4987069;28;20210;-82
2021/05/04 06:06:39;;;;;;;4.03;2.58;;;11.60;93.60;;;;;;4985737;28;20203;-82
2021/05/04 06:09:06;;;;;;;4.30;3.10;;;11.60;93.60;;;;;;4984391;28;20206;-81
2021/05/04 06:11:32;;;;;;;3.65;2.72;;;11.60;93.70;;;;;;4982822;28;20235;-82
2021/05/04 06:14:00;;;;;;;3.03;2.53;;;11.60;94.00;;;;;;4980938;28;20226;-83
2021/05/04 06:16:26;;;;;;;6.35;2.38;;;11.70;93.90;;;;;;4982960;28;20571;-80
2021/05/04 06:18:52;;;;;;;2.70;2.50;;;11.80;94.00;;;;;;4985679;28;20195;-83
2021/05/04 06:21:19;;;;;;;2.20;2.10;;;11.90;93.90;;;;;;4981914;28;20203;-82
2021/05/04 06:23:45;;;;;;;2.28;2.17;;;11.90;94.50;;;;;;4976429;28;20415;-81
2021/05/04 06:26:11;;;;;;;3.28;2.90;;;11.80;94.60;;;;;;4981264;28;20203;-81
2021/05/04 06:28:39;;;;;;;3.53;2.85;;;11.80;94.40;;;;;;4984627;28;20197;-81
2021/05/04 06:31:07;;;;;;;3.63;2.60;;;11.80;94.40;;;;;;4981337;28;20248;-80
2021/05/04 06:33:33;;;;;;;2.70;2.50;;;11.80;94.40;;;;;;4978302;28;20283;-81
2021/05/04 06:36:00;;;;;;;2.42;2.22;;;11.80;94.50;;;;;;4981655;28;20290;-82
2021/05/04 06:38:26;;;;;;;13.90;3.15;;;11.80;94.40;;;;;;4983818;28;20202;-81
2021/05/04 06:40:53;;;;;;;3.10;2.72;;;11.80;94.50;;;;;;4980950;28;20204;-81
2021/05/04 06:43:19;;;;;;;2.88;2.70;;;11.90;94.40;;;;;;4977636;28;20849;-81
2021/05/04 06:45:48;;;;;;;2.80;2.60;;;11.90;94.50;;;;;;4981384;28;20203;-81
2021/05/04 06:48:16;;;;;;;4.03;2.50;;;11.90;94.60;;;;;;4982907;28;20206;-80
2021/05/04 06:50:42;;;;;;;2.78;2.30;;;11.90;94.50;;;;;;4976372;28;20276;-81
2021/05/04 06:53:08;;;;;;;5.65;2.70;;;12.00;94.50;;;;;;4983717;28;20222;-81
2021/05/04 06:55:35;;;;;;;2.83;2.63;;;12.00;94.60;;;;;;4977528;28;20214;-82
2021/05/04 06:58:01;;;;;;;3.90;2.45;;;12.10;94.50;;;;;;4980451;28;20664;-81
2021/05/04 07:00:28;;;;;;;2.92;2.50;;;12.10;94.40;;;;;;4982106;28;20276;-81
2021/05/04 07:02:54;;;;;;;2.53;2.33;;;12.10;94.30;;;;;;4984368;28;20205;-81
2021/05/04 07:05:21;;;;;;;3.97;3.00;;;12.10;94.30;;;;;;4982431;28;20209;-82
2021/05/04 07:07:48;;;;;;;2.35;2.25;;;12.10;94.90;;;;;;4987712;28;20213;-81
2021/05/04 07:10:15;;;;;;;3.42;2.83;;;12.10;94.80;;;;;;4980666;28;20224;-81
2021/05/04 07:12:43;;;;;;;2.85;2.47;;;12.10;95.10;;;;;;4984075;28;20201;-81
2021/05/04 07:15:10;;;;;;;4.80;2.80;;;12.10;95.20;;;;;;4980207;28;20290;-82
2021/05/04 07:17:37;;;;;;;2.60;2.40;;;12.10;95.20;;;;;;4983267;28;20202;-82
2021/05/04 07:20:04;;;;;;;5.10;2.47;;;12.10;95.00;;;;;;4985787;28;20237;-82
2021/05/04 07:22:34;;;;;;;5.43;2.30;;;12.00;94.90;;;;;;4982684;28;20292;-82
2021/05/04 07:25:01;;;;;;;6.18;2.40;;;12.00;95.20;;;;;;4984234;28;20199;-81
2021/05/04 07:27:27;;;;;;;2.58;2.42;;;12.00;95.30;;;;;;4978549;28;20317;-81
2021/05/04 07:29:53;;;;;;;2.33;2.22;;;12.00;95.70;;;;;;4976536;28;20213;-80
2021/05/04 07:32:20;;;;;;;2.65;2.45;;;11.90;96.00;;;;;;4985241;28;20210;-80
2021/05/04 07:34:47;;;;;;;2.47;2.38;;;11.90;96.30;;;;;;4980278;28;20237;-81
2021/05/04 07:37:14;;;;;;;3.85;2.50;;;11.90;96.40;;;;;;4974554;28;20205;-80
2021/05/04 07:39:41;;;;;;;5.38;2.55;;;11.90;96.60;;;;;;4980141;28;20563;-79
2021/05/04 07:42:09;;;;;;;2.35;2.15;;;11.90;96.70;;;;;;4981349;28;20197;-78
2021/05/04 07:44:36;;;;;;;4.80;3.20;;;11.80;97.50;;;;;;4980827;28;20239;-78
2021/05/04 07:47:03;;;;;;;4.82;2.10;;;11.80;97.90;;;;;;4983322;28;20199;-79
2021/05/04 07:49:33;;;;;;;2.55;2.35;;;11.70;98.00;;;;;;4977055;28;20226;-80
2021/05/04 07:52:00;;;;;;;2.15;2.05;;;11.70;98.40;;;;;;4974880;28;20202;-78
2021/05/04 07:54:26;;;;;;;2.63;2.22;;;11.80;99.00;;;;;;4977959;28;20229;-78
2021/05/04 07:56:54;;;;;;;3.00;2.67;;;11.90;99.50;;;;;;4977530;28;20215;-78
2021/05/04 07:59:20;;;;;;;2.65;1.88;;;11.90;99.20;;;;;;4981107;28;20298;-78
2021/05/04 08:01:47;;;;;;;2.95;2.75;;;11.90;98.90;;;;;;4981446;28;20213;-78
2021/05/04 08:04:14;;;;;;;2.47;2.28;;;12.00;99.10;;;;;;4976366;28;20356;-79
2021/05/04 08:06:40;;;;;;;2.50;2.30;;;12.00;99.30;;;;;;4979667;28;20211;-79
2021/05/04 08:09:08;;;;;;;2.65;2.45;;;12.00;99.40;;;;;;4985088;28;20246;-78
2021/05/04 08:11:34;;;;;;;5.13;2.65;;;12.10;99.80;;;;;;4980943;28;20690;-80
2021/05/04 08:14:01;;;;;;;2.47;2.05;;;12.10;99.20;;;;;;4983707;28;20891;-80
2021/05/04 08:16:30;;;;;;;3.55;1.90;;;12.20;99.40;;;;;;4982712;28;20205;-80
2021/05/04 08:18:56;;;;;;;10.25;2.53;;;12.20;99.00;;;;;;4984117;28;20202;-79
2021/05/04 08:21:23;;;;;;;3.03;2.60;;;12.30;98.80;;;;;;4984823;28;20253;-80
2021/05/04 08:23:49;;;;;;;4.20;2.10;;;12.40;98.70;;;;;;4983545;28;20433;-81
2021/05/04 08:26:16;;;;;;;3.45;2.58;;;12.40;99.00;;;;;;4985373;28;20297;-79
2021/05/04 08:28:45;;;;;;;2.58;2.05;;;12.50;99.40;;;;;;4984125;28;20371;-81
2021/05/04 08:31:12;;;;;;;2.00;1.90;;;12.60;99.40;;;;;;4978776;28;20658;-81
2021/05/04 08:33:38;;;;;;;3.03;2.60;;;12.60;99.30;;;;;;4983720;28;20218;-81
2021/05/04 08:36:05;;;;;;;2.13;1.90;;;12.70;99.10;;;;;;4987997;28;20199;-82
2021/05/04 08:38:32;;;;;;;3.38;2.78;;;12.70;98.80;;;;;;4981190;28;20277;-81
2021/05/04 08:40:59;;;;;;;8.95;2.50;;;12.80;98.70;;;;;;4983921;28;20314;-85
2021/05/04 08:43:26;;;;;;;2.30;2.10;;;12.80;99.00;;;;;;4982627;28;20214;-82
2021/05/04 08:45:57;;;;;;;2.70;2.50;;;12.70;98.90;;;;;;4984930;28;20223;-82
2021/05/04 08:48:26;;;;;;;2.25;2.15;;;12.70;98.70;;;;;;4981786;28;20732;-82
2021/05/04 08:50:52;;;;;;;2.70;2.50;;;12.80;98.70;;;;;;4985333;28;20377;-82
2021/05/04 08:53:19;;;;;;;2.60;2.40;;;12.70;98.40;;;;;;4976132;28;20231;-82
2021/05/04 08:55:45;;;;;;;6.00;2.63;;;12.70;98.90;;;;;;4977779;28;20268;-83
2021/05/04 08:58:12;;;;;;;3.08;2.78;;;12.80;98.60;;;;;;4983140;28;20204;-81
2021/05/04 09:00:38;;;;;;;5.88;2.50;;;12.80;98.20;;;;;;4984330;28;20198;-82
2021/05/04 09:03:09;;;;;;;2.45;2.25;;;12.70;98.40;;;;;;4980251;28;20207;-82
2021/05/04 09:05:41;;;;;;;4.15;3.03;;;12.70;98.60;;;;;;4977883;28;20242;-81
2021/05/04 09:08:31;;;;;;;3.15;2.85;;;12.70;99.30;;;;;;4981928;28;20207;-80
2021/05/04 09:11:15;;;;;;;2.70;2.40;;;12.70;99.30;;;;;;4980088;28;20250;-79
2021/05/04 09:13:49;;;;;;;5.50;2.35;;;12.70;99.40;;;;;;4975876;28;20226;-80
2021/05/04 09:16:25;;;;;;;2.50;2.30;;;12.60;99.90;;;;;;4976136;28;20298;-80
2021/05/04 09:21:36;;;;;;;3.70;2.25;;;12.70;99.90;;;;;;4973752;28;20290;-80
2021/05/04 09:24:19;;;;;;;3.60;2.58;;;12.60;99.90;;;;;;4980923;28;20481;-78
2021/05/04 09:26:46;;;;;;;6.22;2.47;;;12.60;99.90;;;;;;4978635;28;20319;-78
2021/05/04 09:29:13;;;;;;;4.38;2.92;;;12.50;99.90;;;;;;4983274;28;20203;-78
2021/05/04 09:31:40;;;;;;;3.85;2.70;;;12.50;99.90;;;;;;4978668;28;20264;-77
2021/05/04 09:34:09;;;;;;;3.95;2.35;;;12.60;99.90;;;;;;4979308;28;20565;-77
2021/05/04 09:36:44;;;;;;;2.03;1.80;;;12.70;99.90;;;;;;4977777;28;20302;-78
2021/05/04 09:39:12;;;;;;;4.20;2.35;;;12.80;99.90;;;;;;4976222;28;20221;-78
2021/05/04 09:41:39;;;;;;;4.60;2.00;;;13.00;99.90;;;;;;4978555;28;20210;-78
2021/05/04 09:44:05;;;;;;;4.40;2.72;;;13.20;99.90;;;;;;4981276;28;20215;-79
2021/05/04 09:46:46;;;;;;;5.90;2.65;;;13.30;99.90;;;;;;4981362;28;20215;-78
2021/05/04 09:49:26;;;;;;;5.30;2.80;;;13.30;99.90;;;;;;4976480;28;20203;-79
2021/05/04 09:51:55;;;;;;;2.50;2.10;;;13.30;99.90;;;;;;4972468;28;20466;-80
2021/05/04 09:54:27;;;;;;;5.53;2.70;;;13.20;99.90;;;;;;4981607;28;20236;-78
2021/05/04 09:56:55;;;;;;;4.07;2.50;;;13.20;99.90;;;;;;4977350;28;20951;-78
2021/05/04 09:59:23;;;;;;;5.80;2.80;;;13.20;99.90;;;;;;4982606;28;20203;-77
2021/05/04 10:01:50;;;;;;;3.60;2.20;;;13.20;99.90;;;;;;4980166;28;20203;-77
2021/05/04 10:04:18;;;;;;;8.32;2.60;;;13.20;99.90;;;;;;4978499;28;20213;-78
2021/05/04 10:06:45;;;;;;;4.80;2.03;;;13.20;99.90;;;;;;4980362;28;20961;-78
2021/05/04 10:09:15;;;;;;;6.53;2.50;;;13.10;99.90;;;;;;4980883;28;20218;-79
2021/05/04 10:11:43;;;;;;;8.98;3.42;;;13.10;99.90;;;;;;4980046;28;20490;-78
2021/05/04 10:14:12;;;;;;;3.15;2.10;;;13.10;99.90;;;;;;4977138;28;20234;-78
2021/05/04 10:16:40;;;;;;;4.15;2.10;;;13.20;99.90;;;;;;4981785;28;20199;-77
2021/05/04 10:19:06;;;;;;;10.40;2.47;;;13.20;99.90;;;;;;4982826;28;20606;-78
2021/05/04 10:21:33;;;;;;;7.57;2.50;;;13.40;99.90;;;;;;4982976;28;20458;-78
2021/05/04 10:23:59;;;;;;;6.80;2.50;;;13.50;99.90;;;;;;4982074;28;20199;-79
2021/05/04 10:26:28;;;;;;;5.53;2.40;;;13.60;99.90;;;;;;4981203;28;20469;-77
2021/05/04 10:28:58;;;;;;;5.95;2.40;;;13.70;99.90;;;;;;4978727;28;20462;-77
2021/05/04 10:31:33;;;;;;;4.87;2.40;;;13.70;99.90;;;;;;4971954;28;20910;-78
2021/05/04 10:34:33;;;;;;;9.43;3.00;;;13.70;99.70;;;;;;4981069;28;21037;-79
2021/05/04 10:37:00;;;;;;;6.53;2.55;;;13.70;98.70;;;;;;4973887;28;20471;-78
2021/05/04 10:39:37;;;;;;;11.90;3.77;;;13.70;99.60;;;;;;4978003;28;20678;-79
2021/05/04 10:42:06;;;;;;;7.43;2.50;;;13.70;98.90;;;;;;4978959;28;20465;-79
2021/05/04 10:45:06;;;;;;;6.40;2.57;;;13.80;98.90;;;;;;4977723;28;20467;-78
2021/05/04 10:47:47;;;;;;;6.10;3.20;;;13.80;98.70;;;;;;4977364;28;20465;-80
2021/05/04 10:50:15;;;;;;;10.23;4.00;;;13.90;98.60;;;;;;4978330;28;20517;-81
2021/05/04 10:53:01;;;;;;;6.03;2.70;;;13.90;97.70;;;;;;4982059;28;20988;-81
2021/05/04 10:56:00;;;;;;;10.40;2.63;;;14.00;97.80;;;;;;4978135;28;20458;-81
2021/05/04 10:58:30;;;;;;;8.10;2.80;;;13.90;97.60;;;;;;4974958;28;20804;-81
2021/05/04 11:01:01;;;;;;;4.83;2.90;;;14.00;96.00;;;;;;4983993;28;20466;-81
2021/05/04 11:03:50;;;;;;;7.63;2.90;;;14.10;95.30;;;;;;4982219;28;20470;-81
2021/05/04 11:06:45;;;;;;;9.77;3.93;;;14.10;95.00;;;;;;4976655;28;20466;-81
2021/05/04 11:09:21;;;;;;;6.00;2.20;;;14.20;94.90;;;;;;4977714;28;20479;-80
2021/05/04 11:11:52;;;;;;;9.27;2.40;;;14.20;94.20;;;;;;4980703;28;20481;-77
2021/05/04 11:14:22;;;;;;;13.93;4.00;;;14.10;95.80;;;;;;4975717;28;20506;-79
2021/05/04 11:17:04;;;;;;;6.77;2.70;;;14.00;94.90;;;;;;4985655;28;20534;-79
2021/05/04 11:19:32;;;;;;;4.73;2.70;;;13.80;95.00;;;;;;4975553;28;20515;-80
2021/05/04 11:22:07;;;;;;;14.30;3.30;;;13.70;95.10;;;;;;4979873;28;20468;-79
2021/05/04 11:24:38;;;;;;;11.90;3.17;;;13.70;94.40;;;;;;4979123;28;20906;-79
2021/05/04 11:27:18;;;;;;;9.57;3.53;;;13.60;93.80;;;;;;4979530;28;20474;-78
2021/05/04 11:29:47;;;;;;;13.10;3.00;;;13.60;94.10;;;;;;4981505;28;20894;-80
2021/05/04 11:32:16;;;;;;;7.55;2.78;;;13.60;94.00;;;;;;4975057;28;21146;-80
2021/05/04 11:34:43;;;;;;;8.13;3.30;;;13.60;94.10;;;;;;4976987;28;20329;-80
2021/05/04 11:37:12;;;;;;;11.50;3.47;;;13.80;94.50;;;;;;4978409;28;21001;-79
2021/05/04 11:39:38;;;;;;;15.53;4.43;;;13.90;94.50;;;;;;4981133;28;20532;-80
2021/05/04 11:42:05;;;;;;;9.77;3.13;;;14.10;94.60;;;;;;4981514;28;20490;-80
2021/05/04 11:44:34;;;;;;;6.77;3.67;;;14.20;93.80;;;;;;4987532;28;20475;-80
2021/05/04 11:47:21;;;;;;;7.77;2.73;;;14.20;92.40;;;;;;4982461;28;20470;-80
2021/05/04 11:49:48;;;;;;;8.77;2.70;;;14.20;90.70;;;;;;4985358;28;20521;-81
2021/05/04 11:52:16;;;;;;;11.50;3.20;;;14.20;91.30;;;;;;4983675;28;20462;-82
2021/05/04 11:54:44;;;;;;;15.53;3.53;;;14.20;91.50;;;;;;4982991;28;20507;-81
2021/05/04 11:57:11;;;;;;;3.90;2.43;;;14.30;91.00;;;;;;4985292;28;20545;-81
2021/05/04 11:59:38;;;;;;;9.40;3.10;;;14.40;91.20;;;;;;4981071;28;20478;-81
2021/05/04 12:02:05;;;;;;;13.90;2.90;;;14.40;90.50;;;;;;4985580;28;20470;-81
2021/05/04 12:04:49;;;;;;;4.07;2.70;;;14.30;90.20;;;;;;4983174;28;20466;-81
2021/05/04 12:07:42;;;;;;;9.33;3.43;;;14.30;90.00;;;;;;4981495;28;20464;-81
2021/05/04 12:10:30;;;;;;;7.33;2.90;;;14.30;90.10;;;;;;4983090;28;20501;-81
2021/05/04 12:12:58;;;;;;;5.20;3.03;;;14.30;89.70;;;;;;4975294;28;20878;-82
2021/05/04 12:15:26;;;;;;;15.43;3.00;;;14.30;90.40;;;;;;4981276;28;20462;-82
2021/05/04 12:18:03;;;;;;;13.87;2.90;;;14.30;91.00;;;;;;4982431;28;20465;-81
2021/05/04 12:20:32;;;;;;;7.20;2.70;;;14.40;90.70;;;;;;4978648;28;20995;-80
2021/05/04 12:23:00;;;;;;;8.90;2.80;;;14.40;90.70;;;;;;4982575;28;20471;-81
2021/05/04 12:25:43;;;;;;;10.43;2.60;;;14.50;90.70;;;;;;4981098;28;20802;-81
2021/05/04 12:28:13;;;;;;;6.10;3.20;;;14.50;91.00;;;;;;4981152;28;20473;-81
2021/05/04 12:30:39;;;;;;;8.03;3.23;;;14.70;90.30;;;;;;4983573;28;20464;-80
2021/05/04 12:33:06;;;;;;;5.80;3.00;;;14.70;89.30;;;;;;4981110;28;20487;-81
2021/05/04 12:35:35;;;;;;;6.97;3.10;;;14.60;90.00;;;;;;4978569;28;20962;-80
2021/05/04 12:38:06;;;;;;;11.20;2.90;;;14.70;90.00;;;;;;4978301;28;20512;-81
2021/05/04 12:40:33;;;;;;;5.90;2.73;;;14.60;89.90;;;;;;4984331;28;20465;-80
2021/05/04 12:43:14;;;;;;;15.97;3.20;;;14.60;90.40;;;;;;4980980;28;20607;-80
2021/05/04 12:46:02;;;;;;;14.13;3.47;;;14.60;90.70;;;;;;4982790;28;20501;-81
2021/05/04 12:48:29;;;;;;;7.70;3.20;;;14.70;90.90;;;;;;4974759;28;20928;-80
2021/05/04 12:51:01;;;;;;;10.53;2.80;;;14.80;91.40;;;;;;4977236;28;20463;-81
2021/05/04 12:53:32;;;;;;;13.23;2.57;;;14.90;91.10;;;;;;4976683;28;21237;-80
2021/05/04 12:56:06;;;;;;;14.53;4.80;;;15.10;91.20;;;;;;4981723;28;21048;-80